sensor_id;sensor_type;location;lat;lon;timestamp;temperature;humidity
73750;SHT30;62058;48.406;-4.514;2023-05-24T00:00:09;15.21;70.27
73750;SHT30;62058;48.406;-4.514;2023-05-24T00:02:39;15.18;69.36
73750;SHT30;62058;48.406;-4.514;2023-05-24T00:05:08;15.18;68.11
73750;SHT30;62058;48.406;-4.514;2023-05-24T00:07:37;15.15;69.04
73750;SHT30;62058;48.406;-4.514;2023-05-24T00:10:04;15.15;68.33
73750;SHT30;62058;48.406;-4.514;2023-05-24T00:12:30;15.08;68.93
73750;SHT30;62058;48.406;-4.514;2023-05-24T00:14:55;15.07;69.64
73750;SHT30;62058;48.406;-4.514;2023-05-24T00:17:20;15.08;68.19
73750;SHT30;62058;48.406;-4.514;2023-05-24T00:19:46;15.05;68.91
73750;SHT30;62058;48.406;-4.514;2023-05-24T00:22:12;15.05;68.38
73750;SHT30;62058;48.406;-4.514;2023-05-24T00:24:38;15.02;68.56
73750;SHT30;62058;48.406;-4.514;2023-05-24T00:27:05;14.98;69.10
73750;SHT30;62058;48.406;-4.514;2023-05-24T00:29:30;14.94;69.93
73750;SHT30;62058;48.406;-4.514;2023-05-24T00:31:56;14.94;68.61
73750;SHT30;62058;48.406;-4.514;2023-05-24T00:34:21;14.92;68.64
73750;SHT30;62058;48.406;-4.514;2023-05-24T00:36:47;14.88;69.74
73750;SHT30;62058;48.406;-4.514;2023-05-24T00:39:12;14.87;68.49
73750;SHT30;62058;48.406;-4.514;2023-05-24T00:41:37;14.81;70.93
73750;SHT30;62058;48.406;-4.514;2023-05-24T00:44:03;14.80;70.87
73750;SHT30;62058;48.406;-4.514;2023-05-24T00:46:31;14.78;68.76
73750;SHT30;62058;48.406;-4.514;2023-05-24T00:48:56;14.77;70.24
73750;SHT30;62058;48.406;-4.514;2023-05-24T00:51:23;14.78;68.67
73750;SHT30;62058;48.406;-4.514;2023-05-24T00:53:50;14.77;69.08
73750;SHT30;62058;48.406;-4.514;2023-05-24T00:56:18;14.80;69.05
73750;SHT30;62058;48.406;-4.514;2023-05-24T00:58:44;14.77;68.44
73750;SHT30;62058;48.406;-4.514;2023-05-24T01:01:10;14.74;69.13
73750;SHT30;62058;48.406;-4.514;2023-05-24T01:03:36;14.76;69.67
73750;SHT30;62058;48.406;-4.514;2023-05-24T01:06:03;14.71;69.04
73750;SHT30;62058;48.406;-4.514;2023-05-24T01:18:11;14.63;69.29
73750;SHT30;62058;48.406;-4.514;2023-05-24T01:20:40;14.57;69.20
73750;SHT30;62058;48.406;-4.514;2023-05-24T01:23:49;14.53;71.14
73750;SHT30;62058;48.406;-4.514;2023-05-24T01:26:36;14.48;70.06
73750;SHT30;62058;48.406;-4.514;2023-05-24T01:29:04;14.44;71.69
73750;SHT30;62058;48.406;-4.514;2023-05-24T01:31:30;14.41;70.92
73750;SHT30;62058;48.406;-4.514;2023-05-24T01:33:56;14.38;70.26
73750;SHT30;62058;48.406;-4.514;2023-05-24T01:36:21;14.30;71.17
73750;SHT30;62058;48.406;-4.514;2023-05-24T01:38:47;14.27;72.78
73750;SHT30;62058;48.406;-4.514;2023-05-24T01:44:42;14.29;73.08
73750;SHT30;62058;48.406;-4.514;2023-05-24T01:49:53;14.29;71.43
73750;SHT30;62058;48.406;-4.514;2023-05-24T01:52:22;14.27;72.43
73750;SHT30;62058;48.406;-4.514;2023-05-24T01:54:52;14.27;72.37
73750;SHT30;62058;48.406;-4.514;2023-05-24T01:57:19;14.24;71.83
73750;SHT30;62058;48.406;-4.514;2023-05-24T01:59:46;14.23;71.76
73750;SHT30;62058;48.406;-4.514;2023-05-24T02:02:12;14.22;72.46
73750;SHT30;62058;48.406;-4.514;2023-05-24T02:04:37;14.22;72.34
73750;SHT30;62058;48.406;-4.514;2023-05-24T02:07:03;14.19;73.29
73750;SHT30;62058;48.406;-4.514;2023-05-24T02:09:28;14.16;72.56
73750;SHT30;62058;48.406;-4.514;2023-05-24T02:11:54;14.13;73.85
73750;SHT30;62058;48.406;-4.514;2023-05-24T02:14:19;14.13;73.54
73750;SHT30;62058;48.406;-4.514;2023-05-24T02:16:46;14.12;72.16
73750;SHT30;62058;48.406;-4.514;2023-05-24T02:19:12;14.14;74.10
73750;SHT30;62058;48.406;-4.514;2023-05-24T02:21:38;14.10;72.36
73750;SHT30;62058;48.406;-4.514;2023-05-24T02:24:04;14.12;73.88
73750;SHT30;62058;48.406;-4.514;2023-05-24T02:26:31;14.09;74.54
73750;SHT30;62058;48.406;-4.514;2023-05-24T02:28:56;14.05;73.23
73750;SHT30;62058;48.406;-4.514;2023-05-24T02:31:21;14.06;73.95
73750;SHT30;62058;48.406;-4.514;2023-05-24T02:33:47;14.05;73.54
73750;SHT30;62058;48.406;-4.514;2023-05-24T02:36:12;14.08;74.77
73750;SHT30;62058;48.406;-4.514;2023-05-24T02:38:37;14.03;75.37
73750;SHT30;62058;48.406;-4.514;2023-05-24T02:41:04;14.05;74.59
73750;SHT30;62058;48.406;-4.514;2023-05-24T02:43:29;14.06;74.05
73750;SHT30;62058;48.406;-4.514;2023-05-24T02:45:55;14.05;73.45
73750;SHT30;62058;48.406;-4.514;2023-05-24T02:48:20;14.02;74.63
73750;SHT30;62058;48.406;-4.514;2023-05-24T02:50:45;14.02;74.42
73750;SHT30;62058;48.406;-4.514;2023-05-24T02:53:11;14.01;73.44
73750;SHT30;62058;48.406;-4.514;2023-05-24T02:55:36;13.99;73.66
73750;SHT30;62058;48.406;-4.514;2023-05-24T02:58:02;13.98;73.13
73750;SHT30;62058;48.406;-4.514;2023-05-24T03:00:30;13.93;73.98
73750;SHT30;62058;48.406;-4.514;2023-05-24T03:02:55;13.93;74.61
73750;SHT30;62058;48.406;-4.514;2023-05-24T03:05:24;13.92;73.56
73750;SHT30;62058;48.406;-4.514;2023-05-24T03:07:50;13.90;75.11
73750;SHT30;62058;48.406;-4.514;2023-05-24T03:10:15;13.92;73.32
73750;SHT30;62058;48.406;-4.514;2023-05-24T03:12:41;13.90;75.52
73750;SHT30;62058;48.406;-4.514;2023-05-24T03:15:07;13.86;74.37
73750;SHT30;62058;48.406;-4.514;2023-05-24T03:17:32;13.86;75.17
73750;SHT30;62058;48.406;-4.514;2023-05-24T03:19:57;13.83;73.93
73750;SHT30;62058;48.406;-4.514;2023-05-24T03:22:23;13.85;75.94
73750;SHT30;62058;48.406;-4.514;2023-05-24T03:24:48;13.83;75.46
73750;SHT30;62058;48.406;-4.514;2023-05-24T03:27:14;13.79;74.55
73750;SHT30;62058;48.406;-4.514;2023-05-24T03:29:39;13.78;74.92
73750;SHT30;62058;48.406;-4.514;2023-05-24T03:32:04;13.79;75.19
73750;SHT30;62058;48.406;-4.514;2023-05-24T03:34:30;13.78;73.99
73750;SHT30;62058;48.406;-4.514;2023-05-24T03:36:55;13.78;75.41
73750;SHT30;62058;48.406;-4.514;2023-05-24T03:39:21;13.76;75.39
73750;SHT30;62058;48.406;-4.514;2023-05-24T03:41:46;13.78;74.25
73750;SHT30;62058;48.406;-4.514;2023-05-24T03:44:12;13.75;75.28
73750;SHT30;62058;48.406;-4.514;2023-05-24T03:46:37;13.71;76.22
73750;SHT30;62058;48.406;-4.514;2023-05-24T03:49:03;13.71;75.79
73750;SHT30;62058;48.406;-4.514;2023-05-24T03:51:28;13.66;75.01
73750;SHT30;62058;48.406;-4.514;2023-05-24T03:53:56;13.68;74.88
73750;SHT30;62058;48.406;-4.514;2023-05-24T03:56:22;13.66;74.80
73750;SHT30;62058;48.406;-4.514;2023-05-24T03:58:47;13.63;74.50
73750;SHT30;62058;48.406;-4.514;2023-05-24T04:01:13;13.62;75.78
73750;SHT30;62058;48.406;-4.514;2023-05-24T04:03:38;13.59;75.54
73750;SHT30;62058;48.406;-4.514;2023-05-24T04:06:05;13.58;74.18
73750;SHT30;62058;48.406;-4.514;2023-05-24T04:08:30;13.57;75.58
73750;SHT30;62058;48.406;-4.514;2023-05-24T04:10:56;13.55;75.50
73750;SHT30;62058;48.406;-4.514;2023-05-24T04:13:21;13.57;75.37
73750;SHT30;62058;48.406;-4.514;2023-05-24T04:15:47;13.55;75.11
73750;SHT30;62058;48.406;-4.514;2023-05-24T04:18:12;13.55;75.66
73750;SHT30;62058;48.406;-4.514;2023-05-24T04:20:38;13.55;74.85
73750;SHT30;62058;48.406;-4.514;2023-05-24T04:23:03;13.52;75.20
73750;SHT30;62058;48.406;-4.514;2023-05-24T04:25:31;13.54;75.14
73750;SHT30;62058;48.406;-4.514;2023-05-24T04:27:58;13.52;75.52
73750;SHT30;62058;48.406;-4.514;2023-05-24T04:30:24;13.52;75.24
73750;SHT30;62058;48.406;-4.514;2023-05-24T04:32:50;13.51;75.79
73750;SHT30;62058;48.406;-4.514;2023-05-24T04:35:16;13.54;75.89
73750;SHT30;62058;48.406;-4.514;2023-05-24T04:37:41;13.51;76.04
73750;SHT30;62058;48.406;-4.514;2023-05-24T04:40:07;13.50;76.34
73750;SHT30;62058;48.406;-4.514;2023-05-24T04:42:34;13.51;75.54
73750;SHT30;62058;48.406;-4.514;2023-05-24T04:44:59;13.57;74.79
73750;SHT30;62058;48.406;-4.514;2023-05-24T04:47:25;13.55;75.85
73750;SHT30;62058;48.406;-4.514;2023-05-24T04:49:50;13.55;75.08
73750;SHT30;62058;48.406;-4.514;2023-05-24T04:52:16;13.61;74.75
73750;SHT30;62058;48.406;-4.514;2023-05-24T04:54:42;13.61;75.12
73750;SHT30;62058;48.406;-4.514;2023-05-24T04:57:07;13.61;76.63
73750;SHT30;62058;48.406;-4.514;2023-05-24T04:59:33;13.62;75.76
73750;SHT30;62058;48.406;-4.514;2023-05-24T05:01:59;13.66;75.51
73750;SHT30;62058;48.406;-4.514;2023-05-24T05:04:24;13.66;76.18
73750;SHT30;62058;48.406;-4.514;2023-05-24T05:06:50;13.69;76.62
73750;SHT30;62058;48.406;-4.514;2023-05-24T05:09:15;13.73;75.31
73750;SHT30;62058;48.406;-4.514;2023-05-24T05:11:41;13.81;75.68
73750;SHT30;62058;48.406;-4.514;2023-05-24T05:14:07;13.83;75.16
73750;SHT30;62058;48.406;-4.514;2023-05-24T05:16:34;13.87;74.75
73750;SHT30;62058;48.406;-4.514;2023-05-24T05:19:00;13.96;75.22
73750;SHT30;62058;48.406;-4.514;2023-05-24T05:21:26;13.96;74.99
73750;SHT30;62058;48.406;-4.514;2023-05-24T05:23:51;14.02;75.78
73750;SHT30;62058;48.406;-4.514;2023-05-24T05:26:16;14.08;75.23
73750;SHT30;62058;48.406;-4.514;2023-05-24T05:28:42;14.08;75.50
73750;SHT30;62058;48.406;-4.514;2023-05-24T05:31:07;14.10;75.33
73750;SHT30;62058;48.406;-4.514;2023-05-24T05:33:32;14.13;74.87
73750;SHT30;62058;48.406;-4.514;2023-05-24T05:35:58;14.17;75.40
73750;SHT30;62058;48.406;-4.514;2023-05-24T05:38:24;14.20;76.11
73750;SHT30;62058;48.406;-4.514;2023-05-24T05:40:49;14.19;75.65
73750;SHT30;62058;48.406;-4.514;2023-05-24T05:43:14;14.29;75.94
73750;SHT30;62058;48.406;-4.514;2023-05-24T05:45:40;14.37;74.52
73750;SHT30;62058;48.406;-4.514;2023-05-24T05:48:05;14.43;75.82
73750;SHT30;62058;48.406;-4.514;2023-05-24T05:50:31;14.48;75.02
73750;SHT30;62058;48.406;-4.514;2023-05-24T05:52:56;14.54;74.83
73750;SHT30;62058;48.406;-4.514;2023-05-24T05:55:22;14.66;74.48
73750;SHT30;62058;48.406;-4.514;2023-05-24T05:57:48;14.71;74.76
73750;SHT30;62058;48.406;-4.514;2023-05-24T06:00:14;14.74;74.99
73750;SHT30;62058;48.406;-4.514;2023-05-24T06:02:39;14.81;75.05
73750;SHT30;62058;48.406;-4.514;2023-05-24T06:05:05;14.85;75.16
73750;SHT30;62058;48.406;-4.514;2023-05-24T06:07:30;14.94;74.50
73750;SHT30;62058;48.406;-4.514;2023-05-24T06:09:56;15.02;74.60
73750;SHT30;62058;48.406;-4.514;2023-05-24T06:12:21;15.12;74.02
73750;SHT30;62058;48.406;-4.514;2023-05-24T06:14:47;15.15;74.14
73750;SHT30;62058;48.406;-4.514;2023-05-24T06:17:15;15.27;73.56
73750;SHT30;62058;48.406;-4.514;2023-05-24T06:19:40;15.35;73.81
73750;SHT30;62058;48.406;-4.514;2023-05-24T06:22:05;15.40;73.23
73750;SHT30;62058;48.406;-4.514;2023-05-24T06:24:31;15.52;73.08
73750;SHT30;62058;48.406;-4.514;2023-05-24T06:26:58;15.62;73.26
73750;SHT30;62058;48.406;-4.514;2023-05-24T06:29:24;15.63;72.97
73750;SHT30;62058;48.406;-4.514;2023-05-24T06:31:49;15.70;72.82
73750;SHT30;62058;48.406;-4.514;2023-05-24T06:34:15;15.74;72.93
73750;SHT30;62058;48.406;-4.514;2023-05-24T06:36:45;15.80;72.66
73750;SHT30;62058;48.406;-4.514;2023-05-24T06:39:12;15.86;72.46
73750;SHT30;62058;48.406;-4.514;2023-05-24T06:41:39;15.91;72.20
73750;SHT30;62058;48.406;-4.514;2023-05-24T06:44:05;15.90;72.66
73750;SHT30;62058;48.406;-4.514;2023-05-24T06:46:31;15.96;72.54
73750;SHT30;62058;48.406;-4.514;2023-05-24T06:48:56;16.09;72.11
73750;SHT30;62058;48.406;-4.514;2023-05-24T06:51:22;16.18;71.63
73750;SHT30;62058;48.406;-4.514;2023-05-24T06:53:47;16.27;71.54
73750;SHT30;62058;48.406;-4.514;2023-05-24T06:56:13;16.31;71.30
73750;SHT30;62058;48.406;-4.514;2023-05-24T06:58:39;16.37;71.06
73750;SHT30;62058;48.406;-4.514;2023-05-24T07:01:04;16.43;70.88
73750;SHT30;62058;48.406;-4.514;2023-05-24T07:03:30;16.54;70.64
73750;SHT30;62058;48.406;-4.514;2023-05-24T07:05:56;16.60;70.38
73750;SHT30;62058;48.406;-4.514;2023-05-24T07:08:23;16.69;69.66
73750;SHT30;62058;48.406;-4.514;2023-05-24T07:10:48;16.79;69.51
73750;SHT30;62058;48.406;-4.514;2023-05-24T07:13:14;16.82;69.32
73750;SHT30;62058;48.406;-4.514;2023-05-24T07:15:40;16.86;68.54
73750;SHT30;62058;48.406;-4.514;2023-05-24T07:18:06;16.95;68.50
73750;SHT30;62058;48.406;-4.514;2023-05-24T07:20:31;17.02;68.05
73750;SHT30;62058;48.406;-4.514;2023-05-24T07:22:57;16.98;67.36
73750;SHT30;62058;48.406;-4.514;2023-05-24T07:25:22;17.06;67.22
73750;SHT30;62058;48.406;-4.514;2023-05-24T07:27:49;17.05;67.62
73750;SHT30;62058;48.406;-4.514;2023-05-24T07:30:15;17.09;67.48
73750;SHT30;62058;48.406;-4.514;2023-05-24T07:32:41;17.13;66.70
73750;SHT30;62058;48.406;-4.514;2023-05-24T07:35:06;17.13;65.89
73750;SHT30;62058;48.406;-4.514;2023-05-24T07:37:32;17.11;65.37
73750;SHT30;62058;48.406;-4.514;2023-05-24T07:39:57;17.11;65.80
73750;SHT30;62058;48.406;-4.514;2023-05-24T07:42:23;17.16;65.65
73750;SHT30;62058;48.406;-4.514;2023-05-24T07:44:48;17.22;65.66
73750;SHT30;62058;48.406;-4.514;2023-05-24T07:47:14;17.26;65.54
73750;SHT30;62058;48.406;-4.514;2023-05-24T07:49:39;17.29;65.33
73750;SHT30;62058;48.406;-4.514;2023-05-24T07:52:05;17.29;65.76
73750;SHT30;62058;48.406;-4.514;2023-05-24T07:54:30;17.36;65.63
73750;SHT30;62058;48.406;-4.514;2023-05-24T07:56:56;17.45;65.47
73750;SHT30;62058;48.406;-4.514;2023-05-24T07:59:22;17.50;65.12
73750;SHT30;62058;48.406;-4.514;2023-05-24T08:01:48;17.57;64.96
73750;SHT30;62058;48.406;-4.514;2023-05-24T08:04:13;17.59;64.58
73750;SHT30;62058;48.406;-4.514;2023-05-24T08:06:40;17.63;64.68
73750;SHT30;62058;48.406;-4.514;2023-05-24T08:09:05;17.76;64.93
73750;SHT30;62058;48.406;-4.514;2023-05-24T08:11:33;17.74;64.13
73750;SHT30;62058;48.406;-4.514;2023-05-24T08:13:59;17.76;64.45
73750;SHT30;62058;48.406;-4.514;2023-05-24T08:16:24;17.77;63.71
73750;SHT30;62058;48.406;-4.514;2023-05-24T08:18:50;17.84;64.17
73750;SHT30;62058;48.406;-4.514;2023-05-24T08:21:15;17.94;64.31
73750;SHT30;62058;48.406;-4.514;2023-05-24T08:23:41;18.02;63.77
73750;SHT30;62058;48.406;-4.514;2023-05-24T08:26:07;18.05;62.63
73750;SHT30;62058;48.406;-4.514;2023-05-24T08:28:33;18.12;63.19
73750;SHT30;62058;48.406;-4.514;2023-05-24T08:30:58;18.25;63.32
73750;SHT30;62058;48.406;-4.514;2023-05-24T08:33:23;18.28;62.56
73750;SHT30;62058;48.406;-4.514;2023-05-24T08:35:49;18.35;62.75
73750;SHT30;62058;48.406;-4.514;2023-05-24T08:38:15;18.47;62.73
73750;SHT30;62058;48.406;-4.514;2023-05-24T08:40:41;18.56;63.09
73750;SHT30;62058;48.406;-4.514;2023-05-24T08:43:07;18.66;63.01
73750;SHT30;62058;48.406;-4.514;2023-05-24T08:45:37;18.77;62.27
73750;SHT30;62058;48.406;-4.514;2023-05-24T08:48:04;18.85;62.17
73750;SHT30;62058;48.406;-4.514;2023-05-24T08:50:31;18.88;61.08
73750;SHT30;62058;48.406;-4.514;2023-05-24T08:52:58;18.90;61.89
73750;SHT30;62058;48.406;-4.514;2023-05-24T08:55:24;18.90;60.52
73750;SHT30;62058;48.406;-4.514;2023-05-24T08:57:49;18.92;60.49
73750;SHT30;62058;48.406;-4.514;2023-05-24T09:00:15;18.95;59.98
73750;SHT30;62058;48.406;-4.514;2023-05-24T09:02:42;18.95;60.51
73750;SHT30;62058;48.406;-4.514;2023-05-24T09:05:11;18.96;60.23
73750;SHT30;62058;48.406;-4.514;2023-05-24T09:07:37;19.02;60.85
73750;SHT30;62058;48.406;-4.514;2023-05-24T09:10:04;19.10;60.65
73750;SHT30;62058;48.406;-4.514;2023-05-24T09:12:31;19.20;60.34
73750;SHT30;62058;48.406;-4.514;2023-05-24T09:15:01;19.23;60.20
73750;SHT30;62058;48.406;-4.514;2023-05-24T09:17:28;19.20;59.20
73750;SHT30;62058;48.406;-4.514;2023-05-24T09:19:57;19.19;58.34
73750;SHT30;62058;48.406;-4.514;2023-05-24T09:22:25;19.19;58.70
73750;SHT30;62058;48.406;-4.514;2023-05-24T09:24:52;19.19;59.34
73750;SHT30;62058;48.406;-4.514;2023-05-24T09:27:18;19.19;59.52
73750;SHT30;62058;48.406;-4.514;2023-05-24T09:29:48;19.31;59.08
73750;SHT30;62058;48.406;-4.514;2023-05-24T09:32:16;19.40;58.40
73750;SHT30;62058;48.406;-4.514;2023-05-24T09:34:44;19.44;59.07
73750;SHT30;62058;48.406;-4.514;2023-05-24T09:37:15;19.58;58.64
73750;SHT30;62058;48.406;-4.514;2023-05-24T09:39:45;19.55;58.27
73750;SHT30;62058;48.406;-4.514;2023-05-24T09:42:18;19.65;59.04
73750;SHT30;62058;48.406;-4.514;2023-05-24T09:44:48;19.73;58.63
73750;SHT30;62058;48.406;-4.514;2023-05-24T09:47:14;19.79;58.61
73750;SHT30;62058;48.406;-4.514;2023-05-24T09:49:40;19.84;58.13
73750;SHT30;62058;48.406;-4.514;2023-05-24T09:52:05;19.89;57.99
73750;SHT30;62058;48.406;-4.514;2023-05-24T09:54:31;19.89;57.01
73750;SHT30;62058;48.406;-4.514;2023-05-24T09:56:59;19.85;57.23
73750;SHT30;62058;48.406;-4.514;2023-05-24T09:59:26;19.85;57.06
73750;SHT30;62058;48.406;-4.514;2023-05-24T10:01:56;19.96;58.11
73750;SHT30;62058;48.406;-4.514;2023-05-24T10:04:33;20.05;57.98
73750;SHT30;62058;48.406;-4.514;2023-05-24T10:06:59;20.11;57.41
73750;SHT30;62058;48.406;-4.514;2023-05-24T10:09:28;20.14;57.82
73750;SHT30;62058;48.406;-4.514;2023-05-24T10:12:00;20.19;57.45
73750;SHT30;62058;48.406;-4.514;2023-05-24T10:14:28;20.25;57.80
73750;SHT30;62058;48.406;-4.514;2023-05-24T10:16:55;20.38;57.90
73750;SHT30;62058;48.406;-4.514;2023-05-24T10:19:20;20.47;57.27
73750;SHT30;62058;48.406;-4.514;2023-05-24T10:21:48;20.50;56.28
73750;SHT30;62058;48.406;-4.514;2023-05-24T10:24:18;20.52;55.26
73750;SHT30;62058;48.406;-4.514;2023-05-24T10:26:49;20.55;57.03
73750;SHT30;62058;48.406;-4.514;2023-05-24T10:29:40;20.56;56.23
73750;SHT30;62058;48.406;-4.514;2023-05-24T10:32:09;20.55;57.60
73750;SHT30;62058;48.406;-4.514;2023-05-24T10:34:35;20.57;57.33
73750;SHT30;62058;48.406;-4.514;2023-05-24T10:37:02;20.55;57.38
73750;SHT30;62058;48.406;-4.514;2023-05-24T10:39:27;20.52;56.12
73750;SHT30;62058;48.406;-4.514;2023-05-24T10:41:56;20.49;57.13
73750;SHT30;62058;48.406;-4.514;2023-05-24T10:44:27;20.47;56.32
73750;SHT30;62058;48.406;-4.514;2023-05-24T10:47:09;20.55;57.70
73750;SHT30;62058;48.406;-4.514;2023-05-24T10:49:35;20.66;57.11
73750;SHT30;62058;48.406;-4.514;2023-05-24T10:52:06;20.66;57.97
73750;SHT30;62058;48.406;-4.514;2023-05-24T10:54:32;20.73;57.91
73750;SHT30;62058;48.406;-4.514;2023-05-24T10:57:00;20.67;57.33
73750;SHT30;62058;48.406;-4.514;2023-05-24T10:59:37;20.62;55.94
73750;SHT30;62058;48.406;-4.514;2023-05-24T11:02:12;20.70;55.68
73750;SHT30;62058;48.406;-4.514;2023-05-24T11:04:42;20.69;56.76
73750;SHT30;62058;48.406;-4.514;2023-05-24T11:07:12;20.77;56.83
73750;SHT30;62058;48.406;-4.514;2023-05-24T11:09:39;20.79;54.99
73750;SHT30;62058;48.406;-4.514;2023-05-24T11:12:18;20.80;55.30
73750;SHT30;62058;48.406;-4.514;2023-05-24T11:14:49;20.80;54.94
73750;SHT30;62058;48.406;-4.514;2023-05-24T11:17:15;20.72;54.19
73750;SHT30;62058;48.406;-4.514;2023-05-24T11:19:48;20.76;55.08
73750;SHT30;62058;48.406;-4.514;2023-05-24T11:22:14;20.83;54.61
73750;SHT30;62058;48.406;-4.514;2023-05-24T11:24:40;20.83;54.40
73750;SHT30;62058;48.406;-4.514;2023-05-24T11:27:10;20.89;54.21
73750;SHT30;62058;48.406;-4.514;2023-05-24T11:29:43;20.96;54.12
73750;SHT30;62058;48.406;-4.514;2023-05-24T11:32:09;21.08;54.14
73750;SHT30;62058;48.406;-4.514;2023-05-24T11:34:39;21.12;52.86
73750;SHT30;62058;48.406;-4.514;2023-05-24T11:37:05;21.18;53.57
73750;SHT30;62058;48.406;-4.514;2023-05-24T11:39:31;21.24;53.44
73750;SHT30;62058;48.406;-4.514;2023-05-24T11:41:58;21.38;52.41
73750;SHT30;62058;48.406;-4.514;2023-05-24T11:44:24;21.41;52.58
73750;SHT30;62058;48.406;-4.514;2023-05-24T11:46:59;21.44;52.06
73750;SHT30;62058;48.406;-4.514;2023-05-24T11:49:25;21.55;52.24
73750;SHT30;62058;48.406;-4.514;2023-05-24T11:51:55;21.72;51.53
73750;SHT30;62058;48.406;-4.514;2023-05-24T11:54:22;21.86;51.44
73750;SHT30;62058;48.406;-4.514;2023-05-24T11:56:47;21.95;51.23
73750;SHT30;62058;48.406;-4.514;2023-05-24T11:59:15;22.03;50.68
73750;SHT30;62058;48.406;-4.514;2023-05-24T12:01:41;22.15;49.99
73750;SHT30;62058;48.406;-4.514;2023-05-24T12:04:07;22.19;49.51
73750;SHT30;62058;48.406;-4.514;2023-05-24T12:06:42;22.33;50.42
73750;SHT30;62058;48.406;-4.514;2023-05-24T12:09:10;22.44;50.71
73750;SHT30;62058;48.406;-4.514;2023-05-24T12:11:41;22.73;49.98
73750;SHT30;62058;48.406;-4.514;2023-05-24T12:14:27;22.90;49.78
73750;SHT30;62058;48.406;-4.514;2023-05-24T12:16:55;23.21;49.35
73750;SHT30;62058;48.406;-4.514;2023-05-24T12:19:22;23.48;49.21
73750;SHT30;62058;48.406;-4.514;2023-05-24T12:21:53;23.80;48.93
73750;SHT30;62058;48.406;-4.514;2023-05-24T12:24:19;24.19;48.12
73750;SHT30;62058;48.406;-4.514;2023-05-24T12:26:46;24.39;46.47
73750;SHT30;62058;48.406;-4.514;2023-05-24T12:29:13;24.33;46.80
73750;SHT30;62058;48.406;-4.514;2023-05-24T12:31:43;24.30;46.70
73750;SHT30;62058;48.406;-4.514;2023-05-24T12:34:16;24.40;46.63
73750;SHT30;62058;48.406;-4.514;2023-05-24T12:36:44;24.70;47.58
73750;SHT30;62058;48.406;-4.514;2023-05-24T12:41:43;25.41;46.53
73750;SHT30;62058;48.406;-4.514;2023-05-24T12:44:10;25.76;42.83
73750;SHT30;62058;48.406;-4.514;2023-05-24T12:46:36;26.08;45.26
73750;SHT30;62058;48.406;-4.514;2023-05-24T12:49:01;26.27;43.98
73750;SHT30;62058;48.406;-4.514;2023-05-24T12:51:29;26.28;44.97
73750;SHT30;62058;48.406;-4.514;2023-05-24T12:53:55;26.37;43.31
73750;SHT30;62058;48.406;-4.514;2023-05-24T12:56:21;26.12;43.02
73750;SHT30;62058;48.406;-4.514;2023-05-24T12:58:46;26.01;43.27
73750;SHT30;62058;48.406;-4.514;2023-05-24T13:01:12;26.06;44.13
73750;SHT30;62058;48.406;-4.514;2023-05-24T13:03:38;26.10;43.65
73750;SHT30;62058;48.406;-4.514;2023-05-24T13:06:04;26.41;44.81
73750;SHT30;62058;48.406;-4.514;2023-05-24T13:08:30;26.81;44.71
73750;SHT30;62058;48.406;-4.514;2023-05-24T13:10:55;27.18;43.91
73750;SHT30;62058;48.406;-4.514;2023-05-24T13:13:21;27.47;42.63
73750;SHT30;62058;48.406;-4.514;2023-05-24T13:15:48;27.73;41.99
73750;SHT30;62058;48.406;-4.514;2023-05-24T13:18:14;27.94;42.47
73750;SHT30;62058;48.406;-4.514;2023-05-24T13:20:40;28.21;41.32
73750;SHT30;62058;48.406;-4.514;2023-05-24T13:23:05;28.41;40.86
73750;SHT30;62058;48.406;-4.514;2023-05-24T13:25:31;28.56;41.03
73750;SHT30;62058;48.406;-4.514;2023-05-24T13:27:56;28.65;40.63
73750;SHT30;62058;48.406;-4.514;2023-05-24T13:30:22;28.80;39.61
73750;SHT30;62058;48.406;-4.514;2023-05-24T13:32:52;29.13;38.84
73750;SHT30;62058;48.406;-4.514;2023-05-24T13:35:18;29.42;39.88
73750;SHT30;62058;48.406;-4.514;2023-05-24T13:37:43;29.70;39.85
73750;SHT30;62058;48.406;-4.514;2023-05-24T13:40:09;30.02;39.75
73750;SHT30;62058;48.406;-4.514;2023-05-24T13:42:35;30.56;39.49
73750;SHT30;62058;48.406;-4.514;2023-05-24T13:45:01;30.78;36.73
73750;SHT30;62058;48.406;-4.514;2023-05-24T13:47:28;30.83;36.70
73750;SHT30;62058;48.406;-4.514;2023-05-24T13:49:53;30.80;37.40
73750;SHT30;62058;48.406;-4.514;2023-05-24T13:52:18;31.14;37.70
73750;SHT30;62058;48.406;-4.514;2023-05-24T13:54:44;31.51;35.87
73750;SHT30;62058;48.406;-4.514;2023-05-24T13:57:09;31.61;35.98
73750;SHT30;62058;48.406;-4.514;2023-05-24T13:59:35;31.84;36.10
73750;SHT30;62058;48.406;-4.514;2023-05-24T14:02:00;32.21;34.86
73750;SHT30;62058;48.406;-4.514;2023-05-24T14:04:26;32.65;35.38
73750;SHT30;62058;48.406;-4.514;2023-05-24T14:06:51;32.83;35.02
73750;SHT30;62058;48.406;-4.514;2023-05-24T14:09:17;33.11;34.81
73750;SHT30;62058;48.406;-4.514;2023-05-24T14:11:45;33.58;32.76
73750;SHT30;62058;48.406;-4.514;2023-05-24T14:14:10;33.99;32.68
73750;SHT30;62058;48.406;-4.514;2023-05-24T14:16:35;33.97;33.03
73750;SHT30;62058;48.406;-4.514;2023-05-24T14:19:01;34.46;32.60
73750;SHT30;62058;48.406;-4.514;2023-05-24T14:21:26;34.79;31.25
73750;SHT30;62058;48.406;-4.514;2023-05-24T14:23:52;35.48;32.95
73750;SHT30;62058;48.406;-4.514;2023-05-24T14:26:18;35.99;32.18
73750;SHT30;62058;48.406;-4.514;2023-05-24T14:28:44;36.19;29.01
73750;SHT30;62058;48.406;-4.514;2023-05-24T14:31:09;36.02;30.73
73750;SHT30;62058;48.406;-4.514;2023-05-24T14:33:35;36.42;30.81
73750;SHT30;62058;48.406;-4.514;2023-05-24T14:36:01;36.69;30.32
73750;SHT30;62058;48.406;-4.514;2023-05-24T14:38:27;36.84;29.34
73750;SHT30;62058;48.406;-4.514;2023-05-24T14:40:52;37.01;29.51
73750;SHT30;62058;48.406;-4.514;2023-05-24T14:43:20;37.17;29.89
73750;SHT30;62058;48.406;-4.514;2023-05-24T14:45:46;37.20;28.34
73750;SHT30;62058;48.406;-4.514;2023-05-24T14:48:11;37.01;28.42
73750;SHT30;62058;48.406;-4.514;2023-05-24T14:50:38;37.13;29.12
73750;SHT30;62058;48.406;-4.514;2023-05-24T14:53:03;37.35;28.55
73750;SHT30;62058;48.406;-4.514;2023-05-24T14:55:36;37.27;28.22
73750;SHT30;62058;48.406;-4.514;2023-05-24T14:58:02;37.62;27.78
73750;SHT30;62058;48.406;-4.514;2023-05-24T15:00:27;37.96;26.82
73750;SHT30;62058;48.406;-4.514;2023-05-24T15:02:53;38.53;28.59
73750;SHT30;62058;48.406;-4.514;2023-05-24T15:05:19;38.99;27.14
73750;SHT30;62058;48.406;-4.514;2023-05-24T15:07:44;39.60;27.86
73750;SHT30;62058;48.406;-4.514;2023-05-24T15:10:10;40.12;26.18
73750;SHT30;62058;48.406;-4.514;2023-05-24T15:12:36;40.47;26.76
73750;SHT30;62058;48.406;-4.514;2023-05-24T15:15:01;40.84;25.56
73750;SHT30;62058;48.406;-4.514;2023-05-24T15:17:27;41.30;24.95
73750;SHT30;62058;48.406;-4.514;2023-05-24T15:19:52;41.38;24.98
73750;SHT30;62058;48.406;-4.514;2023-05-24T15:22:18;41.30;23.68
73750;SHT30;62058;48.406;-4.514;2023-05-24T15:24:43;41.21;26.01
73750;SHT30;62058;48.406;-4.514;2023-05-24T15:27:09;40.90;24.22
73750;SHT30;62058;48.406;-4.514;2023-05-24T15:29:34;40.83;25.36